Time;durP1;ratioP1;P1;durP2;ratioP2;P2;SDS_P1;SDS_P2;PMS_P1;PMS_P2;Temp;Humidity;BMP_temperature;BMP_pressure;BME280_temperature;BME280_humidity;BME280_pressure;Samples;Min_cycle;Max_cycle;Signal;HPM_P1;HPM_P2
2021/08/28 00:00:28;;;;;;;;;;;;;;;10.19;93.90;97847.08;1693064;83;21957;-76
2021/08/28 00:02:56;;;;;;;;;;;;;;;10.18;94.00;97849.52;1693193;85;20130;-73
2021/08/28 00:05:22;;;;;;;;;;;;;;;10.16;93.57;97853.84;1693137;83;20294;-77
2021/08/28 00:07:47;;;;;;;;;;;;;;;10.14;93.65;97847.91;1693400;83;20276;-77
2021/08/28 00:10:13;;;;;;;;;;;;;;;10.11;93.46;97849.02;1693011;85;20176;-77
2021/08/28 00:12:39;;;;;;;;;;;;;;;10.12;93.36;97857.41;1693286;85;21189;-73
2021/08/28 00:15:07;;;;;;;;;;;;;;;10.03;93.29;97855.84;1691775;83;20726;-73
2021/08/28 00:17:34;;;;;;;;;;;;;;;10.04;93.57;97860.16;1689651;85;20423;-77
2021/08/28 00:20:01;;;;;;;;;;;;;;;10.09;93.51;97863.39;1689361;85;20532;-76
2021/08/28 00:22:26;;;;;;;;;;;;;;;10.08;93.47;97864.45;1689735;85;20192;-74
2021/08/28 00:24:52;;;;;;;;;;;;;;;10.03;93.32;97866.66;1689427;85;21261;-72
2021/08/28 00:27:18;;;;;;;;;;;;;;;9.97;93.60;97861.00;1689509;85;20278;-72
2021/08/28 00:29:44;;;;;;;;;;;;;;;9.93;93.68;97861.86;1661743;85;20205;-77
2021/08/28 00:32:09;;;;;;;;;;;;;;;9.85;93.95;97868.66;1689623;85;20158;-77
2021/08/28 00:34:35;;;;;;;;;;;;;;;9.80;94.17;97868.67;1689386;85;20166;-72
2021/08/28 00:37:01;;;;;;;;;;;;;;;9.75;94.37;97869.52;1689535;85;21131;-77
2021/08/28 00:39:27;;;;;;;;;;;;;;;9.74;94.49;97869.77;1689350;85;20220;-73
2021/08/28 00:41:52;;;;;;;;;;;;;;;9.71;94.78;97873.05;1689630;85;20198;-73
2021/08/28 00:44:18;;;;;;;;;;;;;;;9.68;94.91;97871.71;1689411;85;20661;-73
2021/08/28 00:46:44;;;;;;;;;;;;;;;9.70;94.83;97870.08;1689591;85;20195;-76
2021/08/28 00:49:10;;;;;;;;;;;;;;;9.69;94.91;97873.33;1689411;85;20568;-73
2021/08/28 00:51:38;;;;;;;;;;;;;;;9.70;94.85;97866.83;1689577;85;20190;-77
2021/08/28 00:54:03;;;;;;;;;;;;;;;9.66;94.89;97869.03;1662224;85;20179;-77
2021/08/28 00:56:29;;;;;;;;;;;;;;;9.66;95.02;97871.73;1689525;85;20130;-73
2021/08/28 00:58:55;;;;;;;;;;;;;;;9.69;94.76;97877.94;1689402;85;20199;-77
2021/08/28 01:01:22;;;;;;;;;;;;;;;9.66;94.86;97871.19;1689691;85;20757;-76
2021/08/28 01:03:49;;;;;;;;;;;;;;;9.63;94.91;97879.03;1689404;85;20136;-77
2021/08/28 01:06:25;;;;;;;;;;;;;;;9.57;95.02;97879.58;1689512;85;20147;-72
2021/08/28 01:08:53;;;;;;;;;;;;;;;9.58;94.93;97882.58;1689467;85;20399;-72
2021/08/28 01:11:42;;;;;;;;;;;;;;;9.59;94.79;97884.20;1689574;85;20184;-77
2021/08/28 01:14:13;;;;;;;;;;;;;;;9.55;94.59;97881.76;1689391;85;21868;-73
2021/08/28 01:16:40;;;;;;;;;;;;;;;9.48;94.61;97886.65;1689272;84;20128;-72
2021/08/28 01:19:05;;;;;;;;;;;;;;;9.50;94.64;97889.37;1689406;85;20136;-77
2021/08/28 01:21:35;;;;;;;;;;;;;;;9.52;94.54;97887.19;1689575;85;20162;-72
2021/08/28 01:24:04;;;;;;;;;;;;;;;9.51;94.49;97885.58;1689418;85;20147;-72
2021/08/28 01:26:37;;;;;;;;;;;;;;;9.50;94.61;97883.15;1662811;85;21088;-75
2021/08/28 01:29:18;;;;;;;;;;;;;;;9.53;94.57;97883.94;1689352;85;20436;-73
2021/08/28 01:31:45;;;;;;;;;;;;;;;9.51;94.45;97884.77;1689581;85;20143;-72
2021/08/28 01:34:11;;;;;;;;;;;;;;;9.53;94.23;97887.45;1661724;85;20144;-73
2021/08/28 01:36:36;;;;;;;;;;;;;;;9.47;94.08;97884.48;1689708;85;20135;-76
2021/08/28 01:39:02;;;;;;;;;;;;;;;9.41;94.15;97895.63;1689378;85;21102;-73
2021/08/28 01:41:28;;;;;;;;;;;;;;;9.30;94.72;97888.86;1689593;85;20158;-72
2021/08/28 01:43:54;;;;;;;;;;;;;;;9.35;94.45;97894.81;1689344;85;20182;-77
2021/08/28 01:46:20;;;;;;;;;;;;;;;9.33;94.55;97898.34;1689488;85;20210;-76
2021/08/28 01:48:47;;;;;;;;;;;;;;;9.28;94.58;97903.20;1661784;85;20249;-77
2021/08/28 01:51:12;;;;;;;;;;;;;;;9.21;95.23;97895.11;1689422;85;21077;-77
2021/08/28 01:53:38;;;;;;;;;;;;;;;9.23;95.61;97897.83;1689534;85;20178;-77
2021/08/28 01:56:04;;;;;;;;;;;;;;;9.23;96.44;97893.77;1689239;85;20265;-73
2021/08/28 01:58:30;;;;;;;;;;;;;;;9.29;96.45;97889.95;1689454;85;20157;-73
2021/08/28 02:00:56;;;;;;;;;;;;;;;9.34;96.03;97890.50;1689345;85;20174;-73
2021/08/28 02:03:22;;;;;;;;;;;;;;;9.37;95.02;97893.18;1661854;85;21073;-77
2021/08/28 02:05:48;;;;;;;;;;;;;;;9.33;94.58;97892.94;1689257;85;20189;-77
2021/08/28 02:08:18;;;;;;;;;;;;;;;9.18;95.15;97888.91;1689338;85;20136;-77
2021/08/28 02:10:52;;;;;;;;;;;;;;;9.20;95.01;97893.49;1688775;85;20175;-73
2021/08/28 02:13:21;;;;;;;;;;;;;;;9.26;94.72;97889.70;1689402;85;20214;-73
2021/08/28 02:15:47;;;;;;;;;;;;;;;9.22;94.67;97885.36;1661630;85;20908;-73
2021/08/28 02:18:19;;;;;;;;;;;;;;;9.20;95.16;97888.89;1689324;85;20165;-77
2021/08/28 02:20:48;;;;;;;;;;;;;;;9.23;94.54;97892.97;1689326;85;20127;-77
2021/08/28 02:23:17;;;;;;;;;;;;;;;9.17;94.91;97894.05;1688045;85;20144;-73
2021/08/28 02:25:55;;;;;;;;;;;;;;;9.18;94.69;97897.02;1689447;85;20146;-78
2021/08/28 02:28:23;;;;;;;;;;;;;;;9.19;94.57;97899.98;1689515;85;21087;-78
2021/08/28 02:30:50;;;;;;;;;;;;;;;9.20;94.44;97897.55;1688570;85;20140;-73
2021/08/28 02:33:16;;;;;;;;;;;;;;;9.19;94.32;97898.09;1689451;85;20143;-77
2021/08/28 02:35:42;;;;;;;;;;;;;;;9.20;93.92;97898.35;1689495;85;20134;-73
2021/08/28 02:38:07;;;;;;;;;;;;;;;9.13;94.02;97900.53;1661992;85;20154;-73
2021/08/28 02:40:33;;;;;;;;;;;;;;;9.13;93.87;97900.53;1689578;85;21090;-77
2021/08/28 02:42:59;;;;;;;;;;;;;;;9.09;93.78;97903.52;1689603;85;20162;-73
2021/08/28 02:45:26;;;;;;;;;;;;;;;9.02;93.85;97905.14;1689570;85;20213;-77
2021/08/28 02:47:52;;;;;;;;;;;;;;;8.99;93.96;97903.54;1689676;85;20404;-73
2021/08/28 02:50:18;;;;;;;;;;;;;;;8.95;94.06;97901.09;1689480;85;20261;-78
2021/08/28 02:52:44;;;;;;;;;;;;;;;8.88;94.20;97901.91;1689723;85;21166;-78
2021/08/28 02:55:10;;;;;;;;;;;;;;;8.82;94.50;97904.36;1689224;85;20152;-77
2021/08/28 02:57:37;;;;;;;;;;;;;;;8.82;94.37;97907.06;1689606;85;20166;-78
2021/08/28 03:00:04;;;;;;;;;;;;;;;8.74;94.40;97897.06;1689276;85;20566;-78
2021/08/28 03:02:30;;;;;;;;;;;;;;;8.72;94.46;97899.77;1689656;85;20164;-73
2021/08/28 03:04:55;;;;;;;;;;;;;;;8.69;94.64;97899.75;1689287;85;21216;-73
2021/08/28 03:07:21;;;;;;;;;;;;;;;8.65;95.05;97897.34;1689514;85;20213;-73
2021/08/28 03:09:47;;;;;;;;;;;;;;;8.69;95.01;97902.45;1689478;85;20190;-77
2021/08/28 03:12:14;;;;;;;;;;;;;;;8.68;94.74;97896.78;1689660;85;20174;-78
2021/08/28 03:14:40;;;;;;;;;;;;;;;8.66;95.27;97895.44;1689453;85;20143;-73
2021/08/28 03:17:05;;;;;;;;;;;;;;;8.67;94.91;97901.11;1691647;84;21142;-73
2021/08/28 03:19:31;;;;;;;;;;;;;;;8.71;95.29;97892.72;1692381;84;20220;-74
2021/08/28 03:21:57;;;;;;;;;;;;;;;8.70;94.97;97899.21;1692733;85;20201;-77
2021/08/28 03:24:24;;;;;;;;;;;;;;;8.66;95.08;97897.60;1692445;85;20679;-73
2021/08/28 03:26:50;;;;;;;;;;;;;;;8.71;95.38;97892.72;1692586;84;20203;-73
2021/08/28 03:29:16;;;;;;;;;;;;;;;8.73;94.85;97900.04;1666882;85;21133;-78
2021/08/28 03:31:42;;;;;;;;;;;;;;;8.69;94.79;97896.24;1692638;85;20170;-77
2021/08/28 03:34:08;;;;;;;;;;;;;;;8.64;94.71;97899.77;1692392;85;20205;-73
2021/08/28 03:36:34;;;;;;;;;;;;;;;8.63;94.69;97900.85;1692362;85;20180;-73
2021/08/28 03:39:00;;;;;;;;;;;;;;;8.60;94.65;97900.02;1692543;85;20142;-73
2021/08/28 03:41:26;;;;;;;;;;;;;;;8.62;94.64;97895.70;1692296;85;21151;-73
2021/08/28 03:43:51;;;;;;;;;;;;;;;8.57;94.59;97899.77;1666574;85;20170;-78
2021/08/28 03:46:17;;;;;;;;;;;;;;;8.53;94.82;97898.13;1692307;85;20253;-78
2021/08/28 03:48:43;;;;;;;;;;;;;;;8.56;94.49;97902.20;1692418;85;20186;-78
2021/08/28 03:51:09;;;;;;;;;;;;;;;8.47;94.47;97901.38;1692313;85;20174;-78
2021/08/28 03:53:34;;;;;;;;;;;;;;;8.42;94.63;97900.02;1692455;85;21095;-73
2021/08/28 03:56:00;;;;;;;;;;;;;;;8.40;94.83;97896.78;1692244;85;20217;-73
2021/08/28 03:58:26;;;;;;;;;;;;;;;8.38;94.55;97892.73;1692487;85;20205;-77
2021/08/28 04:00:52;;;;;;;;;;;;;;;8.32;94.71;97887.83;1692344;85;20684;-74
2021/08/28 04:03:18;;;;;;;;;;;;;;;8.30;96.48;97885.13;1692341;84;20200;-78
2021/08/28 04:05:44;;;;;;;;;;;;;;;8.35;96.26;97884.61;1692421;85;21148;-73
2021/08/28 04:08:10;;;;;;;;;;;;;;;8.43;96.52;97888.67;1692439;85;20178;-77
2021/08/28 04:10:35;;;;;;;;;;;;;;;8.50;95.04;97885.17;1692516;84;20702;-73
2021/08/28 04:13:01;;;;;;;;;;;;;;;8.49;94.99;97883.55;1692456;85;20663;-73
2021/08/28 04:15:27;;;;;;;;;;;;;;;8.51;94.63;97884.63;1692284;85;20147;-78
2021/08/28 04:17:54;;;;;;;;;;;;;;;8.46;94.59;97888.15;1692203;84;21938;-73
2021/08/28 04:20:20;;;;;;;;;;;;;;;8.39;94.96;97883.01;1692354;85;20144;-78
2021/08/28 04:22:46;;;;;;;;;;;;;;;8.46;94.77;97881.40;1692528;85;20170;-73
2021/08/28 04:25:11;;;;;;;;;;;;;;;8.46;94.61;97878.70;1692191;85;20615;-73
2021/08/28 04:27:37;;;;;;;;;;;;;;;8.45;94.69;97881.91;1692523;85;20762;-78
2021/08/28 04:30:05;;;;;;;;;;;;;;;8.41;94.64;97884.89;1692216;85;21844;-78
2021/08/28 04:32:31;;;;;;;;;;;;;;;8.40;94.70;97886.52;1692501;84;20140;-78
2021/08/28 04:34:56;;;;;;;;;;;;;;;8.42;94.62;97899.20;1692299;85;20212;-78
2021/08/28 04:37:22;;;;;;;;;;;;;;;8.38;94.42;97900.29;1692515;85;20174;-77
2021/08/28 04:39:48;;;;;;;;;;;;;;;8.29;94.54;97903.22;1692360;85;20177;-77
2021/08/28 04:42:13;;;;;;;;;;;;;;;8.27;95.49;97897.25;1692602;85;21178;-73
2021/08/28 04:44:39;;;;;;;;;;;;;;;8.35;94.97;97896.76;1692218;85;20213;-77
2021/08/28 04:47:05;;;;;;;;;;;;;;;8.37;95.51;97904.58;1692445;85;20190;-73
2021/08/28 04:49:31;;;;;;;;;;;;;;;8.46;95.17;97906.52;1692321;85;20217;-78
2021/08/28 04:51:58;;;;;;;;;;;;;;;8.44;94.55;97900.55;1692245;85;20174;-73
2021/08/28 04:54:24;;;;;;;;;;;;;;;8.43;94.49;97906.22;1692348;84;21021;-78
2021/08/28 04:56:49;;;;;;;;;;;;;;;8.38;94.41;97907.05;1692290;85;20163;-78
2021/08/28 04:59:15;;;;;;;;;;;;;;;8.42;94.93;97907.30;1692419;85;20186;-77
2021/08/28 05:01:41;;;;;;;;;;;;;;;8.41;94.44;97915.94;1692249;85;20423;-74
2021/08/28 05:04:07;;;;;;;;;;;;;;;8.39;94.76;97914.06;1692378;84;20119;-78
2021/08/28 05:06:33;;;;;;;;;;;;;;;8.48;94.92;97907.05;1692358;85;21018;-73
2021/08/28 05:08:59;;;;;;;;;;;;;;;8.56;94.58;97907.06;1692296;85;20218;-73
2021/08/28 05:11:25;;;;;;;;;;;;;;;8.60;94.60;97910.83;1692300;85;20217;-78
2021/08/28 05:13:50;;;;;;;;;;;;;;;8.67;94.45;97910.02;1692436;85;20218;-77
2021/08/28 05:16:16;;;;;;;;;;;;;;;8.76;94.08;97908.95;1691944;84;20154;-73
2021/08/28 05:18:42;;;;;;;;;;;;;;;8.74;93.80;97906.52;1661827;85;21194;-73
2021/08/28 05:21:08;;;;;;;;;;;;;;;8.78;93.72;97909.48;1689298;85;20725;-77
2021/08/28 05:23:33;;;;;;;;;;;;;;;8.86;93.58;97909.48;1689401;85;20210;-73
2021/08/28 05:25:59;;;;;;;;;;;;;;;8.85;93.24;97910.02;1689361;85;20245;-73
2021/08/28 05:28:25;;;;;;;;;;;;;;;8.83;93.35;97905.98;1689432;85;20694;-78
2021/08/28 05:30:51;;;;;;;;;;;;;;;8.93;93.01;97905.42;1689345;85;21799;-77
2021/08/28 05:33:17;;;;;;;;;;;;;;;8.88;93.14;97908.66;1689338;85;20158;-73
2021/08/28 05:35:43;;;;;;;;;;;;;;;8.88;93.55;97911.36;1689372;85;20148;-78
2021/08/28 05:38:08;;;;;;;;;;;;;;;8.93;93.00;97908.67;1689420;85;20277;-73
2021/08/28 05:40:34;;;;;;;;;;;;;;;8.93;92.97;97915.42;1689283;85;20289;-73
2021/08/28 05:43:00;;;;;;;;;;;;;;;8.97;93.45;97907.03;1689498;85;21107;-78
2021/08/28 05:45:26;;;;;;;;;;;;;;;9.06;93.10;97909.48;1689353;85;20194;-73
2021/08/28 05:47:51;;;;;;;;;;;;;;;9.21;93.54;97902.67;1689514;85;20242;-73
2021/08/28 05:50:17;;;;;;;;;;;;;;;9.48;93.71;97906.94;1689648;85;20187;-74
2021/08/28 05:52:43;;;;;;;;;;;;;;;9.81;93.10;97906.27;1689523;85;20166;-73
2021/08/28 05:55:15;;;;;;;;;;;;;;;10.13;92.90;97904.50;1661618;85;21123;-78
2021/08/28 05:57:42;;;;;;;;;;;;;;;10.41;92.64;97908.42;1689481;85;20421;-74
2021/08/28 06:00:08;;;;;;;;;;;;;;;10.59;91.66;97905.58;1689174;85;20186;-74
2021/08/28 06:02:37;;;;;;;;;;;;;;;10.86;90.78;97913.80;1689489;85;20179;-73
2021/08/28 06:05:10;;;;;;;;;;;;;;;10.82;89.28;97910.84;1661559;85;20452;-73
2021/08/28 06:07:36;;;;;;;;;;;;;;;10.83;89.58;97911.09;1689471;85;21329;-74
2021/08/28 06:10:02;;;;;;;;;;;;;;;10.84;88.67;97910.00;1689252;85;20190;-78
2021/08/28 06:12:29;;;;;;;;;;;;;;;10.93;89.33;97908.30;1689222;85;20396;-74
2021/08/28 06:14:54;;;;;;;;;;;;;;;11.03;88.69;97906.61;1689218;85;20571;-77
2021/08/28 06:17:20;;;;;;;;;;;;;;;11.03;88.45;97906.06;1690410;84;20182;-74
2021/08/28 06:19:46;;;;;;;;;;;;;;;11.07;88.18;97904.94;1692184;85;21188;-77
2021/08/28 06:22:12;;;;;;;;;;;;;;;11.19;88.94;97904.80;1692180;85;20174;-77
2021/08/28 06:24:37;;;;;;;;;;;;;;;11.43;87.79;97904.83;1692331;85;20229;-73
2021/08/28 06:27:03;;;;;;;;;;;;;;;11.55;88.46;97904.45;1692353;84;20181;-74
2021/08/28 06:29:29;;;;;;;;;;;;;;;11.73;86.76;97898.81;1692363;85;20166;-74
2021/08/28 06:31:55;;;;;;;;;;;;;;;12.11;85.94;97885.58;1692384;85;21702;-73
2021/08/28 06:34:20;;;;;;;;;;;;;;;12.51;86.49;97889.37;1692186;84;20706;-74
2021/08/28 06:36:46;;;;;;;;;;;;;;;12.85;86.00;97895.34;1692263;85;20733;-74
2021/08/28 06:39:12;;;;;;;;;;;;;;;13.22;84.80;97887.65;1692225;85;20577;-74
2021/08/28 06:41:38;;;;;;;;;;;;;;;13.21;84.45;97882.52;1692297;85;20274;-77
2021/08/28 06:44:04;;;;;;;;;;;;;;;13.43;85.18;97885.38;1692263;85;20943;-78
2021/08/28 06:46:30;;;;;;;;;;;;;;;13.53;83.85;97884.37;1692324;85;20168;-77
2021/08/28 06:48:57;;;;;;;;;;;;;;;13.60;83.49;97883.98;1692390;85;20419;-73
2021/08/28 06:51:23;;;;;;;;;;;;;;;13.67;82.44;97885.19;1692382;85;20425;-78
2021/08/28 06:53:49;;;;;;;;;;;;;;;13.56;81.21;97879.67;1692280;85;20148;-74
2021/08/28 06:56:16;;;;;;;;;;;;;;;13.72;78.33;97886.98;1692156;84;21931;-78
2021/08/28 06:58:42;;;;;;;;;;;;;;;14.12;78.55;97881.25;1692290;85;20143;-74
2021/08/28 07:01:08;;;;;;;;;;;;;;;14.78;78.78;97884.38;1666717;85;20670;-74
2021/08/28 07:03:34;;;;;;;;;;;;;;;15.29;75.26;97882.53;1692350;84;20564;-78
2021/08/28 07:05:59;;;;;;;;;;;;;;;15.56;73.43;97884.28;1692355;85;20257;-74
2021/08/28 07:08:25;;;;;;;;;;;;;;;15.91;75.78;97878.41;1692390;84;22015;-75
2021/08/28 07:10:51;;;;;;;;;;;;;;;16.63;74.59;97875.09;1692291;85;20309;-74
2021/08/28 07:13:17;;;;;;;;;;;;;;;17.00;72.73;97869.28;1692363;85;20209;-74
2021/08/28 07:15:42;;;;;;;;;;;;;;;17.27;73.03;97873.03;1692436;85;20293;-75
2021/08/28 07:18:09;;;;;;;;;;;;;;;18.04;69.77;97869.73;1692755;84;20235;-75
2021/08/28 07:20:36;;;;;;;;;;;;;;;18.26;66.73;97872.72;1693176;83;21156;-78
2021/08/28 07:23:02;;;;;;;;;;;;;;;18.50;64.87;97870.12;1693398;83;20138;-74
2021/08/28 07:25:28;;;;;;;;;;;;;;;18.76;63.08;97871.88;1693424;85;20173;-75
2021/08/28 07:27:53;;;;;;;;;;;;;;;18.90;63.55;97868.29;1693001;85;20180;-74
2021/08/28 07:30:19;;;;;;;;;;;;;;;19.23;64.06;97873.77;1693324;85;20164;-74
2021/08/28 07:32:45;;;;;;;;;;;;;;;19.57;62.17;97873.15;1693032;85;21074;-74
2021/08/28 07:35:11;;;;;;;;;;;;;;;19.97;59.58;97868.58;1692993;83;20811;-78
2021/08/28 07:37:37;;;;;;;;;;;;;;;20.70;60.96;97863.55;1693065;85;20783;-79
2021/08/28 07:40:04;;;;;;;;;;;;;;;20.94;58.89;97865.98;1693051;85;20621;-78
2021/08/28 07:42:29;;;;;;;;;;;;;;;20.86;55.80;97866.36;1693022;85;20138;-78
2021/08/28 07:44:55;;;;;;;;;;;;;;;21.26;56.64;97860.74;1693184;85;21191;-75
2021/08/28 07:47:21;;;;;;;;;;;;;;;21.29;54.82;97866.98;1693066;83;20163;-75
2021/08/28 07:49:47;;;;;;;;;;;;;;;21.20;54.40;97868.27;1693186;85;20184;-74
2021/08/28 07:52:14;;;;;;;;;;;;;;;22.07;53.46;97873.66;1693162;83;20813;-78
2021/08/28 07:54:40;;;;;;;;;;;;;;;22.06;52.56;97872.03;1693228;83;20125;-74
2021/08/28 07:57:05;;;;;;;;;;;;;;;;;;1693202;85;21056;-79
2021/08/28 07:59:31;;;;;;;;;;;;;;;23.09;53.53;97863.83;1693039;84;20137;-74
2021/08/28 08:01:57;;;;;;;;;;;;;;;23.11;53.44;97863.45;1693172;85;20183;-79
2021/08/28 08:04:23;;;;;;;;;;;;;;;23.12;48.84;97865.05;1693111;85;20430;-79
2021/08/28 08:06:48;;;;;;;;;;;;;;;23.74;53.50;97867.16;1693190;85;20160;-79
2021/08/28 08:09:15;;;;;;;;;;;;;;;24.18;49.50;97868.84;1693166;85;21098;-79
2021/08/28 08:11:41;;;;;;;;;;;;;;;24.75;46.50;97860.77;1693138;85;20450;-75
2021/08/28 08:14:07;;;;;;;;;;;;;;;24.85;45.71;97864.84;1693129;85;20172;-79
2021/08/28 08:16:33;;;;;;;;;;;;;;;24.90;44.87;97858.18;1693165;83;20696;-75
2021/08/28 08:19:01;;;;;;;;;;;;;;;24.75;45.72;97854.43;1692997;85;20156;-78
2021/08/28 08:21:27;;;;;;;;;;;;;;;24.29;42.36;97856.56;1693146;83;21203;-79
2021/08/28 08:23:53;;;;;;;;;;;;;;;25.20;42.98;97847.05;1693112;83;20184;-75
2021/08/28 08:26:19;;;;;;;;;;;;;;;26.15;41.61;97845.73;1693330;83;20248;-79
2021/08/28 08:28:45;;;;;;;;;;;;;;;26.85;44.35;97849.29;1693170;85;20136;-75
2021/08/28 08:31:11;;;;;;;;;;;;;;;27.45;40.65;97849.28;1693340;83;20166;-75
2021/08/28 08:33:37;;;;;;;;;;;;;;;27.25;35.81;97845.45;1693191;85;21132;-75
2021/08/28 08:36:03;;;;;;;;;;;;;;;27.04;35.36;97849.58;1693231;85;20488;-79
2021/08/28 08:38:29;;;;;;;;;;;;;;;27.36;33.96;97846.88;1693276;85;20165;-75
2021/08/28 08:40:55;;;;;;;;;;;;;;;28.02;36.27;97850.69;1693279;85;20203;-75
2021/08/28 08:43:21;;;;;;;;;;;;;;;28.37;36.29;97845.69;1692990;83;20279;-75
2021/08/28 08:45:47;;;;;;;;;;;;;;;28.52;32.72;97843.06;1693382;83;21085;-75
2021/08/28 08:48:13;;;;;;;;;;;;;;;27.89;33.53;97848.13;1693053;83;20172;-75
2021/08/28 08:50:39;;;;;;;;;;;;;;;28.46;33.06;97843.87;1693283;85;20471;-76
2021/08/28 08:53:05;;;;;;;;;;;;;;;29.87;38.63;97844.94;1693176;83;20148;-79
2021/08/28 08:55:31;;;;;;;;;;;;;;;29.61;32.35;97845.75;1693413;85;20220;-79
2021/08/28 08:57:58;;;;;;;;;;;;;;;29.83;32.45;97838.61;1693122;85;21132;-76
2021/08/28 09:00:23;;;;;;;;;;;;;;;30.12;33.66;97837.77;1693315;83;20145;-75
2021/08/28 09:02:49;;;;;;;;;;;;;;;30.55;31.35;97836.10;1693030;85;20203;-75
2021/08/28 09:05:15;;;;;;;;;;;;;;;31.73;34.00;97839.53;1693325;85;20192;-76
2021/08/28 09:07:41;;;;;;;;;;;;;;;31.12;33.04;97834.02;1693168;83;20184;-76
2021/08/28 09:10:07;;;;;;;;;;;;;;;31.69;33.45;97835.19;1692977;83;21102;-75
2021/08/28 09:12:37;;;;;;;;;;;;;;;31.74;28.92;97834.72;1693097;85;20174;-76
2021/08/28 09:15:04;;;;;;;;;;;;;;;31.38;27.56;97840.09;1693416;83;20146;-78
2021/08/28 09:17:30;;;;;;;;;;;;;;;31.59;28.20;97832.75;1692528;85;20138;-79
2021/08/28 09:19:56;;;;;;;;;;;;;;;32.12;30.41;97833.88;1689299;85;20151;-79
2021/08/28 09:22:26;;;;;;;;;;;;;;;32.74;28.55;97832.34;1689412;85;21154;-79
2021/08/28 09:24:55;;;;;;;;;;;;;;;31.76;26.49;97832.31;1689338;85;20160;-75
2021/08/28 09:27:41;;;;;;;;;;;;;;;30.61;29.38;97828.85;1689476;85;20152;-75
2021/08/28 09:30:22;;;;;;;;;;;;;;;29.74;29.26;97828.70;1689266;85;20132;-75
2021/08/28 09:32:55;;;;;;;;;;;;;;;27.65;31.80;97832.98;1689332;85;20119;-79
2021/08/28 09:35:22;;;;;;;;;;;;;;;29.27;31.59;97832.98;1689003;85;21020;-75
2021/08/28 09:38:02;;;;;;;;;;;;;;;28.10;30.92;97837.75;1689279;85;20168;-75
2021/08/28 09:40:31;;;;;;;;;;;;;;;26.84;33.33;97836.58;1689565;85;20152;-79
2021/08/28 09:42:59;;;;;;;;;;;;;;;25.66;36.38;97828.08;1688517;85;20164;-75
2021/08/28 09:45:25;;;;;;;;;;;;;;;24.55;38.30;97834.99;1688623;85;20426;-75
2021/08/28 09:47:53;;;;;;;;;;;;;;;24.20;39.64;97833.31;1689376;85;21055;-78
2021/08/28 09:50:27;;;;;;;;;;;;;;;23.41;41.38;97831.22;1689418;85;20206;-75
2021/08/28 09:52:53;;;;;;;;;;;;;;;22.99;42.61;97829.30;1689313;85;20139;-78
2021/08/28 09:55:21;;;;;;;;;;;;;;;22.48;43.52;97827.27;1689691;85;20174;-74
2021/08/28 09:57:51;;;;;;;;;;;;;;;22.20;44.17;97829.60;1689326;85;20167;-78
2021/08/28 10:00:17;;;;;;;;;;;;;;;22.22;44.08;97829.27;1689466;85;21164;-74
2021/08/28 10:03:05;;;;;;;;;;;;;;;21.48;44.98;97822.17;1689275;85;20182;-75
2021/08/28 10:05:33;;;;;;;;;;;;;;;21.37;45.50;97825.25;1689508;85;20156;-78
2021/08/28 10:08:00;;;;;;;;;;;;;;;21.10;47.71;97828.23;1689256;85;20168;-74
2021/08/28 10:10:26;;;;;;;;;;;;;;;20.80;47.46;97825.08;1689703;85;20148;-74
2021/08/28 10:12:51;;;;;;;;;;;;;;;21.00;47.53;97833.69;1661595;85;21031;-74
2021/08/28 10:15:17;;;;;;;;;;;;;;;21.05;48.16;97829.89;1689357;85;20173;-78
2021/08/28 10:17:43;;;;;;;;;;;;;;;21.13;48.04;97826.17;1689454;84;20197;-78
2021/08/28 10:20:10;;;;;;;;;;;;;;;21.06;47.60;97834.23;1692960;83;20263;-74
2021/08/28 10:22:36;;;;;;;;;;;;;;;20.80;47.96;97830.58;1692968;85;20417;-78
2021/08/28 10:25:05;;;;;;;;;;;;;;;20.84;49.11;97830.89;1692935;85;21913;-74
2021/08/28 10:27:31;;;;;;;;;;;;;;;20.59;49.73;97834.09;1678105;85;20145;-74
2021/08/28 10:29:57;;;;;;;;;;;;;;;20.69;50.22;97830.87;1693032;85;20148;-78
2021/08/28 10:32:23;;;;;;;;;;;;;;;20.38;49.60;97835.63;1693110;85;20144;-78
2021/08/28 10:34:49;;;;;;;;;;;;;;;20.19;49.76;97840.38;1692963;85;20203;-75
2021/08/28 10:37:14;;;;;;;;;;;;;;;20.59;50.78;97839.02;1693135;85;21056;-74
2021/08/28 10:39:41;;;;;;;;;;;;;;;20.79;49.85;97838.63;1692978;83;20156;-77
2021/08/28 10:42:07;;;;;;;;;;;;;;;20.84;49.96;97848.79;1693130;85;20186;-74
2021/08/28 10:44:33;;;;;;;;;;;;;;;20.81;48.70;97845.95;1693114;85;20138;-74
2021/08/28 10:46:59;;;;;;;;;;;;;;;20.70;49.03;97849.78;1693213;85;20260;-76
2021/08/28 10:49:25;;;;;;;;;;;;;;;20.61;48.99;97849.70;1679240;85;21040;-74
2021/08/28 10:51:55;;;;;;;;;;;;;;;20.52;49.67;97846.52;1693169;85;20255;-74
2021/08/28 10:54:29;;;;;;;;;;;;;;;20.31;49.21;97851.34;1693233;83;20428;-78
2021/08/28 10:56:57;;;;;;;;;;;;;;;20.04;49.91;97847.96;1693164;84;20162;-77
2021/08/28 10:59:29;;;;;;;;;;;;;;;20.00;50.65;97841.79;1693287;85;20210;-74
2021/08/28 11:02:07;;;;;;;;;;;;;;;20.01;50.42;97835.72;1692644;84;21070;-74
2021/08/28 11:04:35;;;;;;;;;;;;;;;20.05;50.69;97831.11;1658427;84;20402;-78
2021/08/28 11:07:21;;;;;;;;;;;;;;;20.17;51.69;97831.11;1693368;83;20453;-74
2021/08/28 11:10:11;;;;;;;;;;;;;;;20.05;50.15;97831.11;1693144;83;20142;-78
2021/08/28 11:12:49;;;;;;;;;;;;;;;20.41;52.66;97826.09;1693412;83;20180;-74
2021/08/28 11:15:28;;;;;;;;;;;;;;;20.56;50.19;97836.98;1693336;85;21026;-78
2021/08/28 11:17:55;;;;;;;;;;;;;;;20.66;47.01;97829.59;1693005;85;20137;-78
2021/08/28 11:20:22;;;;;;;;;;;;;;;20.87;48.08;97832.16;1693460;83;20154;-78
2021/08/28 11:22:48;;;;;;;;;;;;;;;20.84;46.40;97828.13;1693284;83;20413;-78
2021/08/28 11:25:14;;;;;;;;;;;;;;;20.77;47.71;97832.09;1693387;83;20232;-74
2021/08/28 11:27:43;;;;;;;;;;;;;;;20.73;48.70;97833.93;1693278;85;21095;-75
2021/08/28 11:30:10;;;;;;;;;;;;;;;20.59;46.62;97834.09;1692971;83;20402;-74
2021/08/28 11:32:36;;;;;;;;;;;;;;;20.69;47.17;97830.87;1679092;85;20457;-78
2021/08/28 11:35:02;;;;;;;;;;;;;;;20.79;47.02;97835.29;1693032;85;20207;-77
2021/08/28 11:37:36;;;;;;;;;;;;;;;20.65;48.09;97840.97;1693308;85;20180;-78
2021/08/28 11:40:23;;;;;;;;;;;;;;;20.60;48.82;97838.48;1693100;85;21069;-77
2021/08/28 11:42:49;;;;;;;;;;;;;;;20.39;49.56;97846.86;1693203;85;20195;-77
2021/08/28 11:45:17;;;;;;;;;;;;;;;20.31;49.53;97844.47;1693282;85;20188;-77
2021/08/28 11:47:43;;;;;;;;;;;;;;;20.27;51.25;97844.37;1693103;83;20151;-74
2021/08/28 11:50:09;;;;;;;;;;;;;;;20.29;51.20;97847.58;1693204;85;20239;-74
2021/08/28 11:52:35;;;;;;;;;;;;;;;20.29;52.67;97838.52;1693342;83;21023;-77
2021/08/28 11:55:02;;;;;;;;;;;;;;;20.36;51.01;97842.87;1693191;83;20150;-74
2021/08/28 11:57:28;;;;;;;;;;;;;;;20.19;52.36;97849.44;1679024;85;20417;-74
2021/08/28 11:59:54;;;;;;;;;;;;;;;20.15;51.86;97849.08;1693111;83;20168;-74
2021/08/28 12:02:20;;;;;;;;;;;;;;;20.06;51.87;97849.21;1693332;85;20149;-74
2021/08/28 12:04:46;;;;;;;;;;;;;;;20.00;53.00;97858.29;1693053;85;21134;-74
2021/08/28 12:07:12;;;;;;;;;;;;;;;20.08;53.55;97855.73;1693259;85;20173;-78
2021/08/28 12:09:38;;;;;;;;;;;;;;;20.13;52.64;97855.52;1678957;85;20215;-78
2021/08/28 12:12:04;;;;;;;;;;;;;;;20.07;53.14;97857.69;1693397;83;20209;-77
2021/08/28 12:14:31;;;;;;;;;;;;;;;20.00;52.61;97858.29;1693012;85;20232;-77
2021/08/28 12:16:57;;;;;;;;;;;;;;;19.93;52.64;97858.63;1693245;85;21768;-74
2021/08/28 12:19:32;;;;;;;;;;;;;;;19.91;52.64;97859.53;1692862;84;20869;-78
2021/08/28 12:22:04;;;;;;;;;;;;;;;19.93;53.21;97858.63;1693313;85;20410;-77
2021/08/28 12:24:31;;;;;;;;;;;;;;;20.00;55.60;97865.73;1692969;85;20135;-78
2021/08/28 12:27:07;;;;;;;;;;;;;;;19.76;57.65;97871.23;1693395;85;20398;-73
2021/08/28 12:29:46;;;;;;;;;;;;;;;19.30;60.85;97867.70;1692996;85;21066;-73
2021/08/28 12:32:25;;;;;;;;;;;;;;;19.12;63.72;97873.95;1693186;85;20413;-78
2021/08/28 12:34:53;;;;;;;;;;;;;;;18.81;64.93;97866.20;1693196;83;20166;-77
2021/08/28 12:37:19;;;;;;;;;;;;;;;18.72;66.59;97859.41;1693273;83;20459;-74
2021/08/28 12:39:48;;;;;;;;;;;;;;;18.53;68.29;97854.92;1693172;85;20126;-74
2021/08/28 12:42:15;;;;;;;;;;;;;;;18.42;67.82;97842.77;1693334;85;21065;-78
2021/08/28 12:44:46;;;;;;;;;;;;;;;18.58;67.98;97839.64;1693061;85;20142;-78
2021/08/28 12:47:12;;;;;;;;;;;;;;;18.54;67.87;97842.27;1692233;84;20150;-78
2021/08/28 12:49:39;;;;;;;;;;;;;;;18.51;68.73;97835.26;1693048;85;20142;-74
2021/08/28 12:52:10;;;;;;;;;;;;;;;18.64;69.34;97836.13;1693326;85;20166;-74